Columbus, WI (53925)

12:48 AM CDT on July 24, 2016 (GMT -0500)
Vista Circle | | Change Station

Elev 384 ft 43.32 °N, 89.03 °W | Updated 25 seconds ago

Overcast
Overcast
71.2 °F
Feels Like 71.2 °F
N
9.0
Wind Variable Wind from SSE
Gusts 19.0 mph

Today
High -- | Low -- °F
--% Chance of Precip.
Yesterday
High -- | Low -- °F
Precip. -- in
Pressure 29.91 in
Visibility 10.0 miles
Clouds Scattered Clouds 700 ft
Mostly Cloudy 4700 ft
Overcast 6500 ft
Dew Point 70 °F
Humidity 97%
Rainfall 0.00 in
Snow Depth Not available.
5:38 AM 8:26 PM
Waning Gibbous, 79% visible
METAR KUNU 240535Z AUTO 16009G15KT 10SM SCT007 BKN047 OVC065 22/21 A2991 RMK AO2 LTG DSNT N AND S T02150206
Pressure 29.91 in
Visibility 10.0 miles
Clouds Scattered Clouds 700 ft
Mostly Cloudy 4700 ft
Overcast 6500 ft
Dew Point 70 °F
Humidity 97%
Rainfall 0.00 in
Snow Depth Not available.
5:38 AM 8:26 PM
Waning Gibbous, 79% visible
METAR KUNU 240535Z AUTO 16009G15KT 10SM SCT007 BKN047 OVC065 22/21 A2991 RMK AO2 LTG DSNT N AND S T02150206

10-Day Weather Forecast

Almanac

Astronomy

Jul. 24, 2016 Rise Set
Actual Time
Civil Twilight
Nautical Twilight
Astronomical Twilight
Moon
Length of Visible Light
Length of Day
Tomorrow will be .
, % of the Moon is Illuminated

Today's Extremes

State Highs State Lows

Community

WunderPhotos

Upload Photos

1,927,039 photos uploaded!

WunderBlog® & News

Nearby

Air Quality

  Air Quality AQ Index Pollutant
Not available.

Snow Depth

Station Depth Elevation

Earthquake Activity

City Distance Mag. Time & Date
Minimum magnitude displayed is 2.5.

Coastal Water Temperatures

Place Temperature

Stations

Nearby Weather Stations

Station Location Temp. Windchill Dew Point Humidity Wind Precip. Elev Updated Type
                   

Watches & Warnings

There are currently no watches in effect.